sensor_id;sensor_type;location;lat;lon;timestamp;temperature;humidity
9939;DHT22;5008;50.656;7.188;2022-10-31T00:01:28;12.30;99.90
9939;DHT22;5008;50.656;7.188;2022-10-31T00:03:57;12.30;99.90
9939;DHT22;5008;50.656;7.188;2022-10-31T00:06:24;12.40;99.90
9939;DHT22;5008;50.656;7.188;2022-10-31T00:08:53;12.40;99.90
9939;DHT22;5008;50.656;7.188;2022-10-31T00:11:21;12.40;99.90
9939;DHT22;5008;50.656;7.188;2022-10-31T00:13:48;12.20;99.90
9939;DHT22;5008;50.656;7.188;2022-10-31T00:16:15;12.30;99.90
9939;DHT22;5008;50.656;7.188;2022-10-31T00:18:42;12.20;99.90
9939;DHT22;5008;50.656;7.188;2022-10-31T00:21:11;12.20;99.90
9939;DHT22;5008;50.656;7.188;2022-10-31T00:23:37;12.20;99.90
9939;DHT22;5008;50.656;7.188;2022-10-31T00:26:05;12.10;99.90
9939;DHT22;5008;50.656;7.188;2022-10-31T00:28:32;12.10;99.90
9939;DHT22;5008;50.656;7.188;2022-10-31T00:31:00;12.20;99.90
9939;DHT22;5008;50.656;7.188;2022-10-31T00:33:27;12.20;99.90
9939;DHT22;5008;50.656;7.188;2022-10-31T00:35:54;12.20;99.90
9939;DHT22;5008;50.656;7.188;2022-10-31T00:38:22;12.20;99.90
9939;DHT22;5008;50.656;7.188;2022-10-31T00:40:49;12.20;99.90
9939;DHT22;5008;50.656;7.188;2022-10-31T00:43:16;12.20;99.90
9939;DHT22;5008;50.656;7.188;2022-10-31T00:45:43;12.30;99.90
9939;DHT22;5008;50.656;7.188;2022-10-31T00:48:10;12.30;99.90
9939;DHT22;5008;50.656;7.188;2022-10-31T00:50:38;12.30;99.90
9939;DHT22;5008;50.656;7.188;2022-10-31T00:53:05;12.30;99.90
9939;DHT22;5008;50.656;7.188;2022-10-31T00:55:34;12.10;99.90
9939;DHT22;5008;50.656;7.188;2022-10-31T00:58:00;12.20;99.90
9939;DHT22;5008;50.656;7.188;2022-10-31T01:00:27;12.20;99.90
9939;DHT22;5008;50.656;7.188;2022-10-31T01:02:54;12.30;99.90
9939;DHT22;5008;50.656;7.188;2022-10-31T01:05:21;12.20;99.90
9939;DHT22;5008;50.656;7.188;2022-10-31T01:07:48;12.30;99.90
9939;DHT22;5008;50.656;7.188;2022-10-31T01:10:15;12.10;99.90
9939;DHT22;5008;50.656;7.188;2022-10-31T01:12:46;12.20;99.90
9939;DHT22;5008;50.656;7.188;2022-10-31T01:15:16;12.10;99.90
9939;DHT22;5008;50.656;7.188;2022-10-31T01:17:43;12.10;99.90
9939;DHT22;5008;50.656;7.188;2022-10-31T01:20:12;12.20;99.90
9939;DHT22;5008;50.656;7.188;2022-10-31T01:22:39;12.20;99.90
9939;DHT22;5008;50.656;7.188;2022-10-31T01:25:07;12.20;99.90
9939;DHT22;5008;50.656;7.188;2022-10-31T01:27:34;12.20;99.90
9939;DHT22;5008;50.656;7.188;2022-10-31T01:30:03;12.30;99.90
9939;DHT22;5008;50.656;7.188;2022-10-31T01:32:30;12.30;99.90
9939;DHT22;5008;50.656;7.188;2022-10-31T01:34:57;12.20;99.90
9939;DHT22;5008;50.656;7.188;2022-10-31T01:37:24;12.20;99.90
9939;DHT22;5008;50.656;7.188;2022-10-31T01:39:51;12.10;99.90
9939;DHT22;5008;50.656;7.188;2022-10-31T01:42:20;12.10;99.90
9939;DHT22;5008;50.656;7.188;2022-10-31T01:44:51;12.10;99.90
9939;DHT22;5008;50.656;7.188;2022-10-31T01:47:27;12.10;99.90
9939;DHT22;5008;50.656;7.188;2022-10-31T01:49:59;12.10;99.90
9939;DHT22;5008;50.656;7.188;2022-10-31T01:52:30;12.10;99.90
9939;DHT22;5008;50.656;7.188;2022-10-31T01:55:00;12.10;99.90
9939;DHT22;5008;50.656;7.188;2022-10-31T01:57:30;12.20;99.90
9939;DHT22;5008;50.656;7.188;2022-10-31T02:00:00;12.30;99.90
9939;DHT22;5008;50.656;7.188;2022-10-31T02:02:30;12.50;99.90
9939;DHT22;5008;50.656;7.188;2022-10-31T02:05:00;12.70;99.90
9939;DHT22;5008;50.656;7.188;2022-10-31T02:07:33;12.90;99.90
9939;DHT22;5008;50.656;7.188;2022-10-31T02:10:03;12.90;99.90
9939;DHT22;5008;50.656;7.188;2022-10-31T02:12:31;12.70;99.90
9939;DHT22;5008;50.656;7.188;2022-10-31T02:14:59;12.60;99.90
9939;DHT22;5008;50.656;7.188;2022-10-31T02:17:26;12.50;99.90
9939;DHT22;5008;50.656;7.188;2022-10-31T02:20:03;12.50;99.90
9939;DHT22;5008;50.656;7.188;2022-10-31T02:22:40;12.60;99.90
9939;DHT22;5008;50.656;7.188;2022-10-31T02:25:22;12.80;99.90
9939;DHT22;5008;50.656;7.188;2022-10-31T02:28:16;12.90;99.90
9939;DHT22;5008;50.656;7.188;2022-10-31T02:31:13;12.90;99.90
9939;DHT22;5008;50.656;7.188;2022-10-31T02:33:48;13.00;99.90
9939;DHT22;5008;50.656;7.188;2022-10-31T02:36:21;12.80;99.90
9939;DHT22;5008;50.656;7.188;2022-10-31T02:38:56;12.70;99.90
9939;DHT22;5008;50.656;7.188;2022-10-31T02:41:32;12.70;99.90
9939;DHT22;5008;50.656;7.188;2022-10-31T02:44:07;12.70;99.90
9939;DHT22;5008;50.656;7.188;2022-10-31T02:46:40;12.80;99.90
9939;DHT22;5008;50.656;7.188;2022-10-31T02:49:14;12.70;99.90
9939;DHT22;5008;50.656;7.188;2022-10-31T02:51:43;12.60;99.90
9939;DHT22;5008;50.656;7.188;2022-10-31T02:54:18;12.50;99.90
9939;DHT22;5008;50.656;7.188;2022-10-31T02:56:46;12.20;99.90
9939;DHT22;5008;50.656;7.188;2022-10-31T02:59:14;12.10;99.90
9939;DHT22;5008;50.656;7.188;2022-10-31T03:02:11;12.10;99.90
9939;DHT22;5008;50.656;7.188;2022-10-31T03:05:19;12.10;99.90
9939;DHT22;5008;50.656;7.188;2022-10-31T03:07:57;12.20;99.90
9939;DHT22;5008;50.656;7.188;2022-10-31T03:10:31;12.30;99.90
9939;DHT22;5008;50.656;7.188;2022-10-31T03:13:07;12.40;99.90
9939;DHT22;5008;50.656;7.188;2022-10-31T03:15:38;12.40;99.90
9939;DHT22;5008;50.656;7.188;2022-10-31T03:18:10;12.30;99.90
9939;DHT22;5008;50.656;7.188;2022-10-31T03:20:41;12.20;99.90
9939;DHT22;5008;50.656;7.188;2022-10-31T03:23:13;12.10;99.90
9939;DHT22;5008;50.656;7.188;2022-10-31T03:25:41;12.20;99.90
9939;DHT22;5008;50.656;7.188;2022-10-31T03:28:09;12.20;99.90
9939;DHT22;5008;50.656;7.188;2022-10-31T03:30:41;12.10;99.90
9939;DHT22;5008;50.656;7.188;2022-10-31T03:33:10;12.10;99.90
9939;DHT22;5008;50.656;7.188;2022-10-31T03:35:41;12.00;99.90
9939;DHT22;5008;50.656;7.188;2022-10-31T03:38:10;12.00;99.90
9939;DHT22;5008;50.656;7.188;2022-10-31T03:40:38;12.00;99.90
9939;DHT22;5008;50.656;7.188;2022-10-31T03:43:10;11.90;99.90
9939;DHT22;5008;50.656;7.188;2022-10-31T03:45:41;11.90;99.90
9939;DHT22;5008;50.656;7.188;2022-10-31T03:48:11;12.00;99.90
9939;DHT22;5008;50.656;7.188;2022-10-31T03:50:44;11.80;99.90
9939;DHT22;5008;50.656;7.188;2022-10-31T03:53:17;11.80;99.90
9939;DHT22;5008;50.656;7.188;2022-10-31T03:55:50;11.90;99.90
9939;DHT22;5008;50.656;7.188;2022-10-31T03:58:21;11.80;99.90
9939;DHT22;5008;50.656;7.188;2022-10-31T04:00:50;11.70;99.90
9939;DHT22;5008;50.656;7.188;2022-10-31T04:03:23;11.70;99.90
9939;DHT22;5008;50.656;7.188;2022-10-31T04:05:53;11.70;99.90
9939;DHT22;5008;50.656;7.188;2022-10-31T04:08:23;11.80;99.90
9939;DHT22;5008;50.656;7.188;2022-10-31T04:10:52;11.70;99.90
9939;DHT22;5008;50.656;7.188;2022-10-31T04:13:24;11.70;99.90
9939;DHT22;5008;50.656;7.188;2022-10-31T04:15:52;11.70;99.90
9939;DHT22;5008;50.656;7.188;2022-10-31T04:18:22;11.70;99.90
9939;DHT22;5008;50.656;7.188;2022-10-31T04:20:49;11.60;99.90
9939;DHT22;5008;50.656;7.188;2022-10-31T04:23:18;11.70;99.90
9939;DHT22;5008;50.656;7.188;2022-10-31T04:25:46;11.70;99.90
9939;DHT22;5008;50.656;7.188;2022-10-31T04:28:13;11.70;99.90
9939;DHT22;5008;50.656;7.188;2022-10-31T04:30:40;11.70;99.90
9939;DHT22;5008;50.656;7.188;2022-10-31T04:33:06;11.70;99.90
9939;DHT22;5008;50.656;7.188;2022-10-31T04:35:35;11.60;99.90
9939;DHT22;5008;50.656;7.188;2022-10-31T04:38:02;11.60;99.90
9939;DHT22;5008;50.656;7.188;2022-10-31T04:40:28;11.60;99.90
9939;DHT22;5008;50.656;7.188;2022-10-31T04:42:55;11.60;99.90
9939;DHT22;5008;50.656;7.188;2022-10-31T04:45:22;11.70;99.90
9939;DHT22;5008;50.656;7.188;2022-10-31T04:47:49;11.70;99.90
9939;DHT22;5008;50.656;7.188;2022-10-31T04:50:16;11.70;99.90
9939;DHT22;5008;50.656;7.188;2022-10-31T04:52:45;11.60;99.90
9939;DHT22;5008;50.656;7.188;2022-10-31T04:55:13;11.80;99.90
9939;DHT22;5008;50.656;7.188;2022-10-31T04:57:40;12.10;99.90
9939;DHT22;5008;50.656;7.188;2022-10-31T05:00:08;12.30;99.90
9939;DHT22;5008;50.656;7.188;2022-10-31T05:02:42;12.40;99.90
9939;DHT22;5008;50.656;7.188;2022-10-31T05:05:09;12.30;99.90
9939;DHT22;5008;50.656;7.188;2022-10-31T05:07:38;12.20;99.90
9939;DHT22;5008;50.656;7.188;2022-10-31T05:10:08;11.80;99.90
9939;DHT22;5008;50.656;7.188;2022-10-31T05:12:36;11.60;99.90
9939;DHT22;5008;50.656;7.188;2022-10-31T05:15:03;11.70;99.90
9939;DHT22;5008;50.656;7.188;2022-10-31T05:17:31;11.90;99.90
9939;DHT22;5008;50.656;7.188;2022-10-31T05:19:58;11.80;99.90
9939;DHT22;5008;50.656;7.188;2022-10-31T05:22:24;11.90;99.90
9939;DHT22;5008;50.656;7.188;2022-10-31T05:24:51;11.90;99.90
9939;DHT22;5008;50.656;7.188;2022-10-31T05:27:19;12.00;99.90
9939;DHT22;5008;50.656;7.188;2022-10-31T05:29:46;12.00;99.90
9939;DHT22;5008;50.656;7.188;2022-10-31T05:32:13;11.70;99.90
9939;DHT22;5008;50.656;7.188;2022-10-31T05:34:40;11.70;99.90
9939;DHT22;5008;50.656;7.188;2022-10-31T05:37:07;11.70;99.90
9939;DHT22;5008;50.656;7.188;2022-10-31T05:39:33;11.80;99.90
9939;DHT22;5008;50.656;7.188;2022-10-31T05:42:00;11.90;99.90
9939;DHT22;5008;50.656;7.188;2022-10-31T05:44:28;11.90;99.90
9939;DHT22;5008;50.656;7.188;2022-10-31T05:46:57;12.00;99.90
9939;DHT22;5008;50.656;7.188;2022-10-31T05:49:24;11.90;99.90
9939;DHT22;5008;50.656;7.188;2022-10-31T05:51:51;11.90;99.90
9939;DHT22;5008;50.656;7.188;2022-10-31T05:54:18;11.80;99.90
9939;DHT22;5008;50.656;7.188;2022-10-31T05:56:45;11.80;99.90
9939;DHT22;5008;50.656;7.188;2022-10-31T05:59:12;11.70;99.90
9939;DHT22;5008;50.656;7.188;2022-10-31T06:01:41;11.60;99.90
9939;DHT22;5008;50.656;7.188;2022-10-31T06:04:08;11.70;99.90
9939;DHT22;5008;50.656;7.188;2022-10-31T06:06:35;11.90;99.90
9939;DHT22;5008;50.656;7.188;2022-10-31T06:09:02;11.90;99.90
9939;DHT22;5008;50.656;7.188;2022-10-31T06:11:30;11.80;99.90
9939;DHT22;5008;50.656;7.188;2022-10-31T06:13:57;11.80;99.90
9939;DHT22;5008;50.656;7.188;2022-10-31T06:16:24;12.10;99.90
9939;DHT22;5008;50.656;7.188;2022-10-31T06:18:52;12.10;99.90
9939;DHT22;5008;50.656;7.188;2022-10-31T06:21:19;12.10;99.90
9939;DHT22;5008;50.656;7.188;2022-10-31T06:23:47;12.10;99.90
9939;DHT22;5008;50.656;7.188;2022-10-31T06:26:14;12.00;99.90
9939;DHT22;5008;50.656;7.188;2022-10-31T06:28:41;12.00;99.90
9939;DHT22;5008;50.656;7.188;2022-10-31T06:31:08;11.90;99.90
9939;DHT22;5008;50.656;7.188;2022-10-31T06:33:36;11.80;99.90
9939;DHT22;5008;50.656;7.188;2022-10-31T06:36:05;11.90;99.90
9939;DHT22;5008;50.656;7.188;2022-10-31T06:38:35;12.10;99.90
9939;DHT22;5008;50.656;7.188;2022-10-31T06:41:03;12.30;99.90
9939;DHT22;5008;50.656;7.188;2022-10-31T06:43:30;12.30;99.90
9939;DHT22;5008;50.656;7.188;2022-10-31T06:45:57;12.30;99.90
9939;DHT22;5008;50.656;7.188;2022-10-31T06:48:28;12.30;99.90
9939;DHT22;5008;50.656;7.188;2022-10-31T06:50:57;12.30;99.90
9939;DHT22;5008;50.656;7.188;2022-10-31T06:53:25;12.30;99.90
9939;DHT22;5008;50.656;7.188;2022-10-31T06:55:52;12.50;99.90
9939;DHT22;5008;50.656;7.188;2022-10-31T06:58:19;12.60;99.90
9939;DHT22;5008;50.656;7.188;2022-10-31T07:00:46;12.70;99.90
9939;DHT22;5008;50.656;7.188;2022-10-31T07:03:14;12.70;99.90
9939;DHT22;5008;50.656;7.188;2022-10-31T07:05:42;12.70;99.90
9939;DHT22;5008;50.656;7.188;2022-10-31T07:08:12;12.60;99.90
9939;DHT22;5008;50.656;7.188;2022-10-31T07:10:42;12.60;99.90
9939;DHT22;5008;50.656;7.188;2022-10-31T07:13:12;12.70;99.90
9939;DHT22;5008;50.656;7.188;2022-10-31T07:15:40;12.80;99.90
9939;DHT22;5008;50.656;7.188;2022-10-31T07:18:10;13.00;99.90
9939;DHT22;5008;50.656;7.188;2022-10-31T07:20:38;13.10;99.90
9939;DHT22;5008;50.656;7.188;2022-10-31T07:23:05;13.10;99.90
9939;DHT22;5008;50.656;7.188;2022-10-31T07:25:32;13.10;99.90
9939;DHT22;5008;50.656;7.188;2022-10-31T07:28:00;13.30;99.90
9939;DHT22;5008;50.656;7.188;2022-10-31T07:30:27;13.40;99.90
9939;DHT22;5008;50.656;7.188;2022-10-31T07:32:54;13.40;99.90
9939;DHT22;5008;50.656;7.188;2022-10-31T07:35:23;13.40;99.90
9939;DHT22;5008;50.656;7.188;2022-10-31T07:37:50;13.50;99.90
9939;DHT22;5008;50.656;7.188;2022-10-31T07:40:18;13.60;99.90
9939;DHT22;5008;50.656;7.188;2022-10-31T07:42:51;13.60;99.90
9939;DHT22;5008;50.656;7.188;2022-10-31T07:45:20;13.60;99.90
9939;DHT22;5008;50.656;7.188;2022-10-31T07:47:48;13.60;99.90
9939;DHT22;5008;50.656;7.188;2022-10-31T07:50:17;13.50;99.90
9939;DHT22;5008;50.656;7.188;2022-10-31T07:52:44;13.30;99.90
9939;DHT22;5008;50.656;7.188;2022-10-31T07:55:11;13.20;99.90
9939;DHT22;5008;50.656;7.188;2022-10-31T07:57:38;13.20;99.90
9939;DHT22;5008;50.656;7.188;2022-10-31T08:00:07;13.00;99.90
9939;DHT22;5008;50.656;7.188;2022-10-31T08:02:35;13.00;99.90
9939;DHT22;5008;50.656;7.188;2022-10-31T08:05:02;12.90;99.90
9939;DHT22;5008;50.656;7.188;2022-10-31T08:07:29;12.90;99.90
9939;DHT22;5008;50.656;7.188;2022-10-31T08:09:56;12.90;99.90
9939;DHT22;5008;50.656;7.188;2022-10-31T08:12:23;12.90;99.90
9939;DHT22;5008;50.656;7.188;2022-10-31T08:14:50;12.80;99.90
9939;DHT22;5008;50.656;7.188;2022-10-31T08:17:16;12.80;99.90
9939;DHT22;5008;50.656;7.188;2022-10-31T08:19:44;12.80;99.90
9939;DHT22;5008;50.656;7.188;2022-10-31T08:22:11;12.90;99.90
9939;DHT22;5008;50.656;7.188;2022-10-31T08:24:38;12.90;99.90
9939;DHT22;5008;50.656;7.188;2022-10-31T08:27:05;13.00;99.90
9939;DHT22;5008;50.656;7.188;2022-10-31T08:29:31;13.00;99.90
9939;DHT22;5008;50.656;7.188;2022-10-31T08:31:58;13.00;99.90
9939;DHT22;5008;50.656;7.188;2022-10-31T08:34:25;13.00;99.90
9939;DHT22;5008;50.656;7.188;2022-10-31T08:36:53;13.10;99.90
9939;DHT22;5008;50.656;7.188;2022-10-31T08:39:20;13.10;99.90
9939;DHT22;5008;50.656;7.188;2022-10-31T08:41:47;13.10;99.90
9939;DHT22;5008;50.656;7.188;2022-10-31T08:44:14;13.10;99.90
9939;DHT22;5008;50.656;7.188;2022-10-31T08:46:41;13.10;99.90
9939;DHT22;5008;50.656;7.188;2022-10-31T08:49:07;13.10;99.90
9939;DHT22;5008;50.656;7.188;2022-10-31T08:51:34;13.20;99.90
9939;DHT22;5008;50.656;7.188;2022-10-31T08:54:02;13.30;99.90
9939;DHT22;5008;50.656;7.188;2022-10-31T08:56:29;13.40;99.90
9939;DHT22;5008;50.656;7.188;2022-10-31T08:58:56;13.50;99.90
9939;DHT22;5008;50.656;7.188;2022-10-31T09:01:23;13.50;99.90
9939;DHT22;5008;50.656;7.188;2022-10-31T09:03:50;13.60;99.90
9939;DHT22;5008;50.656;7.188;2022-10-31T09:06:17;13.70;99.90
9939;DHT22;5008;50.656;7.188;2022-10-31T09:08:43;13.70;99.90
9939;DHT22;5008;50.656;7.188;2022-10-31T09:11:11;13.80;99.90
9939;DHT22;5008;50.656;7.188;2022-10-31T09:13:38;13.70;99.90
9939;DHT22;5008;50.656;7.188;2022-10-31T09:16:06;13.80;99.90
9939;DHT22;5008;50.656;7.188;2022-10-31T09:18:33;13.80;99.90
9939;DHT22;5008;50.656;7.188;2022-10-31T09:21:00;13.80;99.90
9939;DHT22;5008;50.656;7.188;2022-10-31T09:23:27;13.80;99.90
9939;DHT22;5008;50.656;7.188;2022-10-31T09:25:54;13.80;99.90
9939;DHT22;5008;50.656;7.188;2022-10-31T09:28:23;13.90;99.90
9939;DHT22;5008;50.656;7.188;2022-10-31T09:30:52;13.90;99.90
9939;DHT22;5008;50.656;7.188;2022-10-31T09:33:19;13.90;99.90
9939;DHT22;5008;50.656;7.188;2022-10-31T09:35:46;13.90;99.90
9939;DHT22;5008;50.656;7.188;2022-10-31T09:38:15;13.90;99.90
9939;DHT22;5008;50.656;7.188;2022-10-31T09:40:43;13.90;99.90
9939;DHT22;5008;50.656;7.188;2022-10-31T09:43:17;13.90;99.90
9939;DHT22;5008;50.656;7.188;2022-10-31T09:46:04;14.00;99.90
9939;DHT22;5008;50.656;7.188;2022-10-31T09:48:44;14.10;99.90
9939;DHT22;5008;50.656;7.188;2022-10-31T09:51:19;14.20;99.90
9939;DHT22;5008;50.656;7.188;2022-10-31T09:53:50;14.20;99.90
9939;DHT22;5008;50.656;7.188;2022-10-31T09:56:19;14.30;99.90
9939;DHT22;5008;50.656;7.188;2022-10-31T09:58:50;14.30;99.90
9939;DHT22;5008;50.656;7.188;2022-10-31T10:01:34;14.40;99.90
9939;DHT22;5008;50.656;7.188;2022-10-31T10:04:17;14.50;99.90
9939;DHT22;5008;50.656;7.188;2022-10-31T10:06:46;14.60;99.90
9939;DHT22;5008;50.656;7.188;2022-10-31T10:09:13;14.60;99.90
9939;DHT22;5008;50.656;7.188;2022-10-31T10:11:51;14.70;99.90
9939;DHT22;5008;50.656;7.188;2022-10-31T10:14:36;14.80;99.90
9939;DHT22;5008;50.656;7.188;2022-10-31T10:17:25;14.80;99.90
9939;DHT22;5008;50.656;7.188;2022-10-31T10:20:17;14.90;99.90
9939;DHT22;5008;50.656;7.188;2022-10-31T10:22:51;15.10;99.90
9939;DHT22;5008;50.656;7.188;2022-10-31T10:25:21;15.20;99.90
9939;DHT22;5008;50.656;7.188;2022-10-31T10:28:01;15.30;99.90
9939;DHT22;5008;50.656;7.188;2022-10-31T10:30:34;15.40;99.90
9939;DHT22;5008;50.656;7.188;2022-10-31T10:33:08;15.50;99.90
9939;DHT22;5008;50.656;7.188;2022-10-31T10:35:40;15.60;99.90
9939;DHT22;5008;50.656;7.188;2022-10-31T10:38:15;15.70;99.90
9939;DHT22;5008;50.656;7.188;2022-10-31T10:40:42;15.80;99.90
9939;DHT22;5008;50.656;7.188;2022-10-31T10:43:23;15.90;99.90
9939;DHT22;5008;50.656;7.188;2022-10-31T10:45:55;15.90;99.90
9939;DHT22;5008;50.656;7.188;2022-10-31T10:48:53;16.00;99.90
9939;DHT22;5008;50.656;7.188;2022-10-31T10:51:23;16.20;99.90
9939;DHT22;5008;50.656;7.188;2022-10-31T10:54:13;16.20;99.90
9939;DHT22;5008;50.656;7.188;2022-10-31T10:56:52;16.30;99.90
9939;DHT22;5008;50.656;7.188;2022-10-31T10:59:22;16.40;99.90
9939;DHT22;5008;50.656;7.188;2022-10-31T11:01:51;16.40;99.90
9939;DHT22;5008;50.656;7.188;2022-10-31T11:04:31;16.50;99.90
9939;DHT22;5008;50.656;7.188;2022-10-31T11:07:00;16.50;99.90
9939;DHT22;5008;50.656;7.188;2022-10-31T11:09:27;16.50;99.90
9939;DHT22;5008;50.656;7.188;2022-10-31T11:11:54;16.60;99.90
9939;DHT22;5008;50.656;7.188;2022-10-31T11:14:22;16.70;99.90
9939;DHT22;5008;50.656;7.188;2022-10-31T11:16:52;16.70;99.90
9939;DHT22;5008;50.656;7.188;2022-10-31T11:19:22;16.70;99.90
9939;DHT22;5008;50.656;7.188;2022-10-31T11:21:52;16.80;99.90
9939;DHT22;5008;50.656;7.188;2022-10-31T11:24:22;16.80;99.90
9939;DHT22;5008;50.656;7.188;2022-10-31T11:26:51;16.80;99.90
9939;DHT22;5008;50.656;7.188;2022-10-31T11:29:22;16.90;99.90
9939;DHT22;5008;50.656;7.188;2022-10-31T11:31:52;16.90;99.90
9939;DHT22;5008;50.656;7.188;2022-10-31T11:34:30;16.90;99.90
9939;DHT22;5008;50.656;7.188;2022-10-31T11:37:03;17.00;99.90
9939;DHT22;5008;50.656;7.188;2022-10-31T11:39:40;17.10;99.90
9939;DHT22;5008;50.656;7.188;2022-10-31T11:42:07;17.30;99.90
9939;DHT22;5008;50.656;7.188;2022-10-31T11:44:34;17.30;99.90
9939;DHT22;5008;50.656;7.188;2022-10-31T11:49:36;17.40;99.90
9939;DHT22;5008;50.656;7.188;2022-10-31T11:52:07;17.40;99.90
9939;DHT22;5008;50.656;7.188;2022-10-31T11:54:39;17.40;99.90
9939;DHT22;5008;50.656;7.188;2022-10-31T11:57:25;17.40;99.90
9939;DHT22;5008;50.656;7.188;2022-10-31T11:59:54;17.40;99.90
9939;DHT22;5008;50.656;7.188;2022-10-31T12:02:22;17.50;99.90
9939;DHT22;5008;50.656;7.188;2022-10-31T12:04:54;17.50;99.90
9939;DHT22;5008;50.656;7.188;2022-10-31T12:07:24;17.60;99.90
9939;DHT22;5008;50.656;7.188;2022-10-31T12:09:51;17.70;99.90
9939;DHT22;5008;50.656;7.188;2022-10-31T12:12:38;17.70;99.90
9939;DHT22;5008;50.656;7.188;2022-10-31T12:15:19;17.90;99.90
9939;DHT22;5008;50.656;7.188;2022-10-31T12:17:54;17.90;99.90
9939;DHT22;5008;50.656;7.188;2022-10-31T12:20:26;18.00;99.90
9939;DHT22;5008;50.656;7.188;2022-10-31T12:23:03;18.10;99.90
9939;DHT22;5008;50.656;7.188;2022-10-31T12:25:39;18.10;99.90
9939;DHT22;5008;50.656;7.188;2022-10-31T12:28:34;18.20;99.90
9939;DHT22;5008;50.656;7.188;2022-10-31T12:31:15;18.10;99.90
9939;DHT22;5008;50.656;7.188;2022-10-31T12:33:54;18.00;99.90
9939;DHT22;5008;50.656;7.188;2022-10-31T12:36:33;18.00;99.90
9939;DHT22;5008;50.656;7.188;2022-10-31T12:39:16;17.90;99.90
9939;DHT22;5008;50.656;7.188;2022-10-31T12:41:49;17.90;99.90
9939;DHT22;5008;50.656;7.188;2022-10-31T12:44:59;17.90;99.90
9939;DHT22;5008;50.656;7.188;2022-10-31T12:47:37;17.80;99.90
9939;DHT22;5008;50.656;7.188;2022-10-31T12:50:22;17.80;99.90
9939;DHT22;5008;50.656;7.188;2022-10-31T12:53:00;17.80;99.90
9939;DHT22;5008;50.656;7.188;2022-10-31T12:55:44;17.70;99.90
9939;DHT22;5008;50.656;7.188;2022-10-31T12:58:19;17.60;99.90
9939;DHT22;5008;50.656;7.188;2022-10-31T13:00:53;17.60;99.90
9939;DHT22;5008;50.656;7.188;2022-10-31T13:03:28;17.70;99.90
9939;DHT22;5008;50.656;7.188;2022-10-31T13:05:59;17.60;99.90
9939;DHT22;5008;50.656;7.188;2022-10-31T13:08:31;17.50;99.90
9939;DHT22;5008;50.656;7.188;2022-10-31T13:11:10;17.50;99.90
9939;DHT22;5008;50.656;7.188;2022-10-31T13:13:41;17.50;99.90
9939;DHT22;5008;50.656;7.188;2022-10-31T13:16:14;17.50;99.90
9939;DHT22;5008;50.656;7.188;2022-10-31T13:18:46;17.60;99.90
9939;DHT22;5008;50.656;7.188;2022-10-31T13:21:18;17.90;99.90
9939;DHT22;5008;50.656;7.188;2022-10-31T13:23:49;18.30;99.90
9939;DHT22;5008;50.656;7.188;2022-10-31T13:26:23;18.60;99.90
9939;DHT22;5008;50.656;7.188;2022-10-31T13:28:54;18.80;99.90
9939;DHT22;5008;50.656;7.188;2022-10-31T13:31:22;19.10;99.90
9939;DHT22;5008;50.656;7.188;2022-10-31T13:33:53;19.30;99.90
9939;DHT22;5008;50.656;7.188;2022-10-31T13:36:27;19.10;99.90
9939;DHT22;5008;50.656;7.188;2022-10-31T13:39:02;18.90;99.90
9939;DHT22;5008;50.656;7.188;2022-10-31T13:41:40;18.80;99.90
9939;DHT22;5008;50.656;7.188;2022-10-31T13:44:14;18.60;99.90
9939;DHT22;5008;50.656;7.188;2022-10-31T13:46:42;18.40;99.90
9939;DHT22;5008;50.656;7.188;2022-10-31T13:49:26;18.30;99.90
9939;DHT22;5008;50.656;7.188;2022-10-31T13:52:15;18.20;99.90
9939;DHT22;5008;50.656;7.188;2022-10-31T13:54:44;18.10;99.90
9939;DHT22;5008;50.656;7.188;2022-10-31T13:57:18;18.00;99.90
9939;DHT22;5008;50.656;7.188;2022-10-31T13:59:49;18.00;99.90
9939;DHT22;5008;50.656;7.188;2022-10-31T14:02:24;18.00;99.90
9939;DHT22;5008;50.656;7.188;2022-10-31T14:04:54;18.00;99.90
9939;DHT22;5008;50.656;7.188;2022-10-31T14:07:22;18.00;99.90
9939;DHT22;5008;50.656;7.188;2022-10-31T14:09:54;18.00;99.90
9939;DHT22;5008;50.656;7.188;2022-10-31T14:12:28;17.90;99.90
9939;DHT22;5008;50.656;7.188;2022-10-31T14:14:58;17.90;99.90
9939;DHT22;5008;50.656;7.188;2022-10-31T14:17:28;17.90;99.90
9939;DHT22;5008;50.656;7.188;2022-10-31T14:23:11;17.90;99.90
9939;DHT22;5008;50.656;7.188;2022-10-31T14:25:40;17.80;99.90
9939;DHT22;5008;50.656;7.188;2022-10-31T14:28:21;17.80;99.90
9939;DHT22;5008;50.656;7.188;2022-10-31T14:30:52;17.80;99.90
9939;DHT22;5008;50.656;7.188;2022-10-31T14:33:19;17.90;99.90
9939;DHT22;5008;50.656;7.188;2022-10-31T14:35:53;17.90;99.90
9939;DHT22;5008;50.656;7.188;2022-10-31T14:41:55;18.00;99.90
9939;DHT22;5008;50.656;7.188;2022-10-31T14:44:54;18.00;99.90
9939;DHT22;5008;50.656;7.188;2022-10-31T14:47:32;18.00;99.90
9939;DHT22;5008;50.656;7.188;2022-10-31T14:50:18;18.10;99.90
9939;DHT22;5008;50.656;7.188;2022-10-31T14:52:49;18.20;99.90
9939;DHT22;5008;50.656;7.188;2022-10-31T14:55:17;18.20;99.90
9939;DHT22;5008;50.656;7.188;2022-10-31T14:57:52;18.20;99.90
9939;DHT22;5008;50.656;7.188;2022-10-31T15:00:23;18.20;99.90
9939;DHT22;5008;50.656;7.188;2022-10-31T15:03:05;18.30;99.90
9939;DHT22;5008;50.656;7.188;2022-10-31T15:05:42;18.20;99.90
9939;DHT22;5008;50.656;7.188;2022-10-31T15:08:25;18.20;99.90
9939;DHT22;5008;50.656;7.188;2022-10-31T15:11:10;18.10;99.90
9939;DHT22;5008;50.656;7.188;2022-10-31T15:13:42;18.20;99.90
9939;DHT22;5008;50.656;7.188;2022-10-31T15:16:12;18.20;99.90
9939;DHT22;5008;50.656;7.188;2022-10-31T15:18:47;18.20;99.90
9939;DHT22;5008;50.656;7.188;2022-10-31T15:21:15;18.20;99.90
9939;DHT22;5008;50.656;7.188;2022-10-31T15:23:43;18.10;99.90
9939;DHT22;5008;50.656;7.188;2022-10-31T15:26:16;18.10;99.90
9939;DHT22;5008;50.656;7.188;2022-10-31T15:28:44;18.00;99.90
9939;DHT22;5008;50.656;7.188;2022-10-31T15:31:23;18.10;99.90
9939;DHT22;5008;50.656;7.188;2022-10-31T15:33:54;18.00;99.90
9939;DHT22;5008;50.656;7.188;2022-10-31T15:36:24;17.90;99.90
9939;DHT22;5008;50.656;7.188;2022-10-31T15:38:52;17.80;99.90
9939;DHT22;5008;50.656;7.188;2022-10-31T15:41:29;17.80;99.90
9939;DHT22;5008;50.656;7.188;2022-10-31T15:44:02;17.70;99.90
9939;DHT22;5008;50.656;7.188;2022-10-31T15:46:34;17.60;99.90
9939;DHT22;5008;50.656;7.188;2022-10-31T15:49:18;17.50;99.90
9939;DHT22;5008;50.656;7.188;2022-10-31T15:51:47;17.40;99.90
9939;DHT22;5008;50.656;7.188;2022-10-31T15:54:15;17.30;99.90
9939;DHT22;5008;50.656;7.188;2022-10-31T15:56:43;17.20;99.90
9939;DHT22;5008;50.656;7.188;2022-10-31T15:59:16;17.20;99.90
9939;DHT22;5008;50.656;7.188;2022-10-31T16:01:58;17.20;99.90
9939;DHT22;5008;50.656;7.188;2022-10-31T16:04:25;17.10;99.90
9939;DHT22;5008;50.656;7.188;2022-10-31T16:07:01;17.00;99.90
9939;DHT22;5008;50.656;7.188;2022-10-31T16:09:28;17.00;99.90
9939;DHT22;5008;50.656;7.188;2022-10-31T16:11:58;17.00;99.90
9939;DHT22;5008;50.656;7.188;2022-10-31T16:14:29;17.10;99.90
9939;DHT22;5008;50.656;7.188;2022-10-31T16:17:03;17.00;99.90
9939;DHT22;5008;50.656;7.188;2022-10-31T16:19:32;17.00;99.90
9939;DHT22;5008;50.656;7.188;2022-10-31T16:22:06;17.00;99.90
9939;DHT22;5008;50.656;7.188;2022-10-31T16:24:44;17.00;99.90
9939;DHT22;5008;50.656;7.188;2022-10-31T16:27:18;16.90;99.90
9939;DHT22;5008;50.656;7.188;2022-10-31T16:29:51;17.00;99.90
9939;DHT22;5008;50.656;7.188;2022-10-31T16:32:30;17.00;99.90
9939;DHT22;5008;50.656;7.188;2022-10-31T16:35:01;17.00;99.90
9939;DHT22;5008;50.656;7.188;2022-10-31T16:37:42;16.90;99.90